Time;durP1;ratioP1;P1;durP2;ratioP2;P2;SDS_P1;SDS_P2;PMS_P1;PMS_P2;Temp;Humidity;BMP_temperature;BMP_pressure;BME280_temperature;BME280_humidity;BME280_pressure;Samples;Min_cycle;Max_cycle;Signal;HPM_P1;HPM_P2
2022/04/28 00:00:29;;;;;;;18.27;7.53;;;;;;;4.97;100.00;101355.19;5017411;28;20025;-85
2022/04/28 00:02:55;;;;;;;11.70;7.05;;;;;;;4.91;100.00;101348.06;5034837;28;20020;-84
2022/04/28 00:05:20;;;;;;;13.55;8.15;;;;;;;4.86;100.00;101349.78;5017162;28;20513;-86
2022/04/28 00:07:46;;;;;;;19.33;7.65;;;;;;;4.89;100.00;101354.22;5017127;28;20025;-84
2022/04/28 00:10:13;;;;;;;24.10;8.35;;;;;;;4.57;100.00;101353.88;5017628;28;20029;-85
2022/04/28 00:12:38;;;;;;;12.75;7.03;;;;;;;4.33;100.00;101354.44;5016553;28;20025;-84
2022/04/28 00:15:04;;;;;;;16.73;8.00;;;;;;;4.28;100.00;101357.00;5016753;28;20043;-85
2022/04/28 00:17:30;;;;;;;18.13;7.63;;;;;;;4.34;100.00;101354.47;5016729;28;20092;-85
2022/04/28 00:19:56;;;;;;;18.15;7.82;;;;;;;4.46;100.00;101360.75;5016908;28;20021;-84
2022/04/28 00:22:23;;;;;;;15.90;7.90;;;;;;;4.57;100.00;101359.16;5034812;28;20028;-83
2022/04/28 00:24:49;;;;;;;17.42;8.25;;;;;;;4.58;100.00;101357.41;5034465;28;20052;-84
2022/04/28 00:27:14;;;;;;;18.83;8.90;;;;;;;4.64;100.00;101359.25;5016639;28;20052;-82
2022/04/28 00:29:39;;;;;;;15.93;8.23;;;;;;;4.67;100.00;101364.53;5034550;28;20470;-83
2022/04/28 00:32:05;;;;;;;13.02;8.10;;;;;;;4.70;100.00;101359.28;5016758;28;20071;-85
2022/04/28 00:34:31;;;;;;;19.02;8.82;;;;;;;4.69;100.00;101358.41;5034532;28;20044;-84
2022/04/28 00:36:56;;;;;;;16.05;8.57;;;;;;;4.66;100.00;101361.03;5034560;28;20486;-83
2022/04/28 00:39:21;;;;;;;18.40;8.38;;;;;;;4.70;100.00;101359.28;5034460;28;20029;-83
2022/04/28 00:41:47;;;;;;;13.80;8.23;;;;;;;4.68;100.00;101366.34;5031925;22;20069;-76
2022/04/28 00:44:12;;;;;;;17.48;8.52;;;;;;;4.68;100.00;101361.03;5035471;28;20033;-76
2022/04/28 00:46:43;;;;;;;20.13;8.00;;;;;;;4.59;100.00;101361.81;5052936;28;20481;-76
2022/04/28 00:51:54;;;;;;;;;;;;;;;4.62;100.00;101361.84;5053893;28;20070;-76
2022/04/28 00:54:20;;;;;;;17.90;7.85;;;;;;;4.57;100.00;101364.44;5052862;28;19995;-77
2022/04/28 00:56:45;;;;;;;15.30;7.63;;;;;;;4.50;100.00;101359.94;5052070;28;20075;-76
2022/04/28 00:59:11;;;;;;;16.77;7.88;;;;;;;4.49;100.00;101360.81;5052648;28;20021;-76
2022/04/28 01:01:37;;;;;;;13.55;7.20;;;;;;;4.45;100.00;101359.00;5052607;28;20032;-76
2022/04/28 01:04:03;;;;;;;12.25;6.80;;;;;;;4.45;100.00;101366.94;5035122;28;20398;-76
2022/04/28 01:06:29;;;;;;;14.80;8.25;;;;;;;4.44;100.00;101362.50;5034763;28;20470;-76
2022/04/28 01:08:57;;;;;;;20.77;8.38;;;;;;;4.30;100.00;101364.97;5052975;28;20497;-76
2022/04/28 01:11:24;;;;;;;14.80;7.75;;;;;;;4.32;100.00;101357.94;5052886;28;20024;-76
2022/04/28 01:13:49;;;;;;;17.05;8.13;;;;;;;4.34;100.00;101367.69;5053920;28;20025;-76
2022/04/28 01:16:15;;;;;;;16.42;7.90;;;;;;;4.30;100.00;101363.22;5053186;28;20440;-76
2022/04/28 01:18:40;;;;;;;15.65;7.50;;;;;;;4.29;100.00;101369.38;5052921;28;20021;-76
2022/04/28 01:21:07;;;;;;;18.42;8.32;;;;;;;4.21;100.00;101363.09;5052955;28;20028;-76
2022/04/28 01:23:34;;;;;;;19.98;8.57;;;;;;;4.17;100.00;101374.50;5052929;28;20051;-76
2022/04/28 01:26:00;;;;;;;20.25;9.52;;;;;;;4.21;100.00;101366.63;5053158;28;20052;-76
2022/04/28 01:28:29;;;;;;;15.20;8.95;;;;;;;4.25;100.00;101378.16;5034773;28;20025;-78
2022/04/28 01:30:55;;;;;;;16.08;8.57;;;;;;;4.18;100.00;101371.88;5052342;28;20394;-76
2022/04/28 01:33:20;;;;;;;16.88;8.63;;;;;;;4.11;100.00;101367.38;5052268;28;20028;-77
2022/04/28 01:35:46;;;;;;;15.13;8.95;;;;;;;4.12;100.00;101375.31;5052207;28;20021;-77
2022/04/28 01:38:11;;;;;;;19.15;8.85;;;;;;;4.14;100.00;101370.06;5052431;28;20032;-76
2022/04/28 01:40:37;;;;;;;18.75;9.18;;;;;;;4.13;100.00;101373.56;5052226;28;20478;-76
2022/04/28 01:43:02;;;;;;;18.38;8.82;;;;;;;4.03;100.00;101377.81;5052242;28;20031;-76
2022/04/28 01:45:28;;;;;;;16.27;8.60;;;;;;;3.90;100.00;101375.00;5052223;28;20079;-76
2022/04/28 01:47:53;;;;;;;18.00;9.18;;;;;;;3.80;100.00;101381.91;5052351;28;20055;-77
2022/04/28 01:50:18;;;;;;;23.27;9.80;;;;;;;3.86;100.00;101381.13;5034497;28;20386;-76
2022/04/28 01:55:30;;;;;;;22.15;9.75;;;;;;;3.94;100.00;101372.41;5052213;28;20063;-76
2022/04/28 01:57:57;;;;;;;19.83;9.52;;;;;;;3.88;100.00;101374.09;5034127;28;20428;-77
2022/04/28 02:00:22;;;;;;;21.58;10.15;;;;;;;3.87;100.00;101382.88;5052047;28;20063;-76
2022/04/28 02:02:47;;;;;;;18.30;9.48;;;;;;;3.88;100.00;101373.19;5052206;28;20017;-77
2022/04/28 02:05:13;;;;;;;23.90;10.00;;;;;;;3.80;100.00;101381.00;5052040;28;20025;-77
2022/04/28 02:07:38;;;;;;;20.45;10.07;;;;;;;3.69;100.00;101379.06;5036025;28;20502;-76
2022/04/28 02:10:05;;;;;;;18.45;9.93;;;;;;;3.76;100.00;101373.91;5055908;28;20093;-76
2022/04/28 02:12:31;;;;;;;20.63;9.85;;;;;;;3.75;100.00;101372.09;5055830;28;20039;-76
2022/04/28 02:14:56;;;;;;;17.20;9.93;;;;;;;3.73;100.00;101381.78;5055492;28;20025;-77
2022/04/28 02:17:27;;;;;;;21.23;9.55;;;;;;;3.69;100.00;101379.06;5055734;28;20032;-77
2022/04/28 02:19:54;;;;;;;25.13;10.35;;;;;;;3.71;100.00;101380.88;5055844;28;20029;-77
2022/04/28 02:22:20;;;;;;;19.27;9.57;;;;;;;3.67;100.00;101371.97;5055758;28;20024;-76
2022/04/28 02:24:47;;;;;;;23.63;10.77;;;;;;;3.54;100.00;101374.44;5055727;28;20362;-77
2022/04/28 02:27:13;;;;;;;18.13;9.23;;;;;;;3.60;100.00;101378.94;5055500;28;20025;-77
2022/04/28 02:29:38;;;;;;;24.45;10.68;;;;;;;3.58;100.00;101370.09;5037843;28;20031;-76
2022/04/28 02:32:04;;;;;;;23.10;10.98;;;;;;;3.51;100.00;101378.75;5037865;28;20073;-76
2022/04/28 02:34:29;;;;;;;21.58;10.52;;;;;;;3.52;100.00;101373.53;5055534;28;20082;-76
2022/04/28 02:36:55;;;;;;;20.13;10.07;;;;;;;3.51;100.00;101373.47;5037451;28;20044;-76
2022/04/28 02:39:21;;;;;;;22.27;10.30;;;;;;;3.49;100.00;101365.53;5055587;28;20029;-78
2022/04/28 02:41:47;;;;;;;25.33;10.30;;;;;;;3.41;100.00;101373.31;5054939;28;20040;-77
2022/04/28 02:44:13;;;;;;;22.55;11.23;;;;;;;3.34;100.00;101371.44;5055236;28;20032;-77
2022/04/28 02:46:42;;;;;;;20.42;10.45;;;;;;;3.29;100.00;101373.13;5037112;28;20025;-77
2022/04/28 02:49:09;;;;;;;23.48;11.38;;;;;;;3.12;100.00;101377.22;5054964;28;20021;-77
2022/04/28 02:51:34;;;;;;;21.38;10.38;;;;;;;3.13;100.00;101370.19;5036992;28;20036;-76
2022/04/28 02:53:59;;;;;;;22.50;10.88;;;;;;;3.13;100.00;101371.09;5055076;28;20029;-76
2022/04/28 02:56:25;;;;;;;22.63;10.70;;;;;;;3.10;100.00;101367.50;5054801;28;20039;-77
2022/04/28 02:58:51;;;;;;;23.17;11.20;;;;;;;3.09;100.00;101365.72;5037016;28;20047;-77
2022/04/28 03:01:16;;;;;;;23.13;10.77;;;;;;;3.03;100.00;101358.59;5037139;28;20025;-77
2022/04/28 03:03:42;;;;;;;24.45;10.95;;;;;;;3.06;100.00;101376.22;5054805;28;20490;-76
2022/04/28 03:11:35;;;;;;;22.85;10.82;;;;;;;3.00;100.00;101366.44;5055561;28;19955;-76
2022/04/28 03:14:01;;;;;;;20.92;10.68;;;;;;;2.96;100.00;101365.50;5037183;28;20075;-76
2022/04/28 03:16:26;;;;;;;21.20;10.50;;;;;;;2.95;100.00;101363.72;5054929;28;20024;-76
2022/04/28 03:18:52;;;;;;;21.38;10.80;;;;;;;2.93;100.00;101360.16;5054468;28;20392;-76
2022/04/28 03:21:17;;;;;;;20.10;10.88;;;;;;;2.82;100.00;101374.88;5054655;28;20036;-76
2022/04/28 03:23:42;;;;;;;24.17;11.70;;;;;;;2.85;100.00;101369.66;5036979;28;20021;-76
2022/04/28 03:26:08;;;;;;;21.27;11.23;;;;;;;2.81;100.00;101375.75;5036402;28;20024;-77
2022/04/28 03:28:35;;;;;;;22.63;11.70;;;;;;;2.72;100.00;101377.34;5054268;28;20029;-76
2022/04/28 03:31:03;;;;;;;25.23;10.88;;;;;;;2.71;100.00;101375.56;5036376;28;20047;-76
2022/04/28 03:33:28;;;;;;;28.40;12.05;;;;;;;2.71;100.00;101375.56;5054091;28;20111;-76
2022/04/28 03:35:54;;;;;;;24.95;11.98;;;;;;;2.67;100.00;101379.91;5054204;28;20025;-76
2022/04/28 03:38:19;;;;;;;24.05;11.75;;;;;;;2.64;100.00;101387.75;5054169;28;20035;-76
2022/04/28 03:40:45;;;;;;;26.00;11.73;;;;;;;2.63;100.00;101382.44;5036318;28;20371;-76
2022/04/28 03:43:12;;;;;;;23.38;12.10;;;;;;;2.54;100.00;101388.41;5036479;28;20061;-76
2022/04/28 03:45:38;;;;;;;28.33;12.20;;;;;;;2.60;100.00;101387.66;5054803;28;20096;-76
2022/04/28 03:48:04;;;;;;;24.40;10.90;;;;;;;2.62;100.00;101389.47;5054105;28;20470;-75
2022/04/28 03:50:30;;;;;;;24.20;11.95;;;;;;;2.55;100.00;101393.69;5053992;28;20096;-77
2022/04/28 03:52:59;;;;;;;26.10;12.25;;;;;;;2.56;100.00;101390.22;5053841;28;20078;-77
2022/04/28 03:55:24;;;;;;;25.15;11.73;;;;;;;2.60;100.00;101385.00;5035941;28;20394;-77
2022/04/28 03:57:51;;;;;;;26.58;11.80;;;;;;;2.60;100.00;101377.09;5053755;28;20423;-78
2022/04/28 04:00:17;;;;;;;28.63;11.90;;;;;;;2.61;100.00;101378.84;5035873;28;20052;-77
2022/04/28 04:02:42;;;;;;;24.58;11.65;;;;;;;2.58;100.00;101379.69;5035647;28;20064;-77
2022/04/28 04:05:07;;;;;;;22.90;11.43;;;;;;;2.50;100.00;101384.78;5053438;28;20526;-77
2022/04/28 04:07:38;;;;;;;25.92;12.32;;;;;;;2.45;100.00;101383.81;5053659;28;20108;-77
2022/04/28 04:10:07;;;;;;;26.65;11.50;;;;;;;2.48;100.00;101394.44;5053428;28;20078;-77
2022/04/28 04:12:33;;;;;;;26.88;12.63;;;;;;;2.54;100.00;101389.28;5054617;28;20025;-77
2022/04/28 04:14:58;;;;;;;25.38;11.90;;;;;;;2.51;100.00;101383.94;5053997;28;20470;-77
2022/04/28 04:17:23;;;;;;;35.25;13.10;;;;;;;2.53;100.00;101381.34;5053821;28;20112;-77
2022/04/28 04:19:49;;;;;;;23.52;11.63;;;;;;;2.54;100.00;101391.03;5054445;28;20035;-77
2022/04/28 04:22:14;;;;;;;23.67;12.45;;;;;;;2.53;100.00;101395.41;5054154;28;20071;-76
2022/04/28 04:24:42;;;;;;;25.20;11.73;;;;;;;2.52;100.00;101398.03;5054186;28;20492;-76
2022/04/28 04:27:09;;;;;;;24.75;11.85;;;;;;;2.56;100.00;101398.13;5054225;28;20024;-77
2022/04/28 04:29:35;;;;;;;25.90;12.60;;;;;;;2.55;100.00;101401.59;5036436;28;20401;-77
2022/04/28 04:32:18;;;;;;;25.52;11.50;;;;;;;2.54;100.00;101401.59;5053023;28;20505;-77
2022/04/28 04:34:47;;;;;;;27.77;12.30;;;;;;;2.49;100.00;101400.59;5053606;28;20017;-77
2022/04/28 04:37:14;;;;;;;25.55;11.32;;;;;;;2.50;100.00;101402.38;5053435;28;20036;-77
2022/04/28 04:39:40;;;;;;;29.48;13.60;;;;;;;2.54;100.00;101409.50;5053585;28;20029;-77
2022/04/28 04:42:06;;;;;;;30.60;13.18;;;;;;;2.55;100.00;101412.16;5035519;28;20029;-77
2022/04/28 04:44:32;;;;;;;27.33;13.15;;;;;;;2.59;100.00;101415.75;5053681;28;20051;-77
2022/04/28 04:46:57;;;;;;;26.45;12.88;;;;;;;2.63;100.00;101416.72;5035590;28;20055;-77
2022/04/28 04:49:22;;;;;;;25.42;12.38;;;;;;;2.59;100.00;101423.66;5053463;28;20024;-77
2022/04/28 04:51:47;;;;;;;28.73;13.70;;;;;;;2.60;100.00;101424.56;5053389;28;20021;-77
2022/04/28 04:54:13;;;;;;;25.05;12.75;;;;;;;2.60;100.00;101429.84;5053798;28;20040;-77
2022/04/28 04:56:38;;;;;;;25.25;12.32;;;;;;;2.64;100.00;101416.75;5053906;28;20477;-76
2022/04/28 04:59:04;;;;;;;36.38;13.80;;;;;;;2.71;100.00;101422.13;5054836;28;20048;-76
2022/04/28 05:01:30;;;;;;;31.50;13.65;;;;;;;2.69;100.00;101427.38;5053817;28;20032;-76
2022/04/28 05:03:55;;;;;;;26.50;13.00;;;;;;;2.76;100.00;101426.66;5035342;28;20025;-77
2022/04/28 05:06:21;;;;;;;24.33;12.73;;;;;;;2.85;100.00;101435.63;5035202;28;20024;-77
2022/04/28 05:08:46;;;;;;;25.52;13.73;;;;;;;2.81;100.00;101439.06;5053225;28;20096;-76
2022/04/28 05:11:11;;;;;;;28.67;13.48;;;;;;;2.89;100.00;101432.19;5053392;28;20025;-76
2022/04/28 05:13:37;;;;;;;30.17;12.98;;;;;;;2.89;100.00;101434.81;5035134;28;20433;-77
2022/04/28 05:16:02;;;;;;;27.52;13.07;;;;;;;2.92;100.00;101436.63;5036770;28;20024;-78
2022/04/28 05:18:28;;;;;;;32.83;13.88;;;;;;;2.94;100.00;101434.94;5038389;28;20028;-78
2022/04/28 05:20:53;;;;;;;29.67;14.07;;;;;;;2.95;100.00;101432.31;5056159;28;20024;-77
2022/04/28 05:23:20;;;;;;;30.08;13.85;;;;;;;3.01;100.00;101439.47;5056342;28;20017;-78
2022/04/28 05:25:46;;;;;;;26.67;12.55;;;;;;;3.05;100.00;101437.78;5038668;28;20025;-77
2022/04/28 05:28:11;;;;;;;30.48;13.70;;;;;;;3.10;100.00;101437.00;5057191;28;20078;-78
2022/04/28 05:30:36;;;;;;;29.23;12.82;;;;;;;3.14;100.00;101437.97;5057323;28;20064;-78
2022/04/28 05:33:01;;;;;;;30.67;13.48;;;;;;;3.16;100.00;101441.53;5057437;28;20032;-78
2022/04/28 05:35:27;;;;;;;25.77;12.43;;;;;;;3.22;100.00;101441.63;5057711;28;20107;-77
2022/04/28 05:37:53;;;;;;;31.48;14.20;;;;;;;3.31;100.00;101447.94;5058314;28;20036;-77
2022/04/28 05:40:18;;;;;;;34.03;13.98;;;;;;;3.40;100.00;101448.13;5057205;28;20025;-78
2022/04/28 05:45:43;;;;;;;;;;;;;;;3.44;100.00;101457.91;5060520;28;20023;-78
2022/04/28 05:48:13;;;;;;;26.20;12.90;;;;;;;3.49;100.00;101459.72;5060568;28;20453;-78
2022/04/28 05:50:39;;;;;;;28.88;12.13;;;;;;;3.49;100.00;101462.34;5042848;28;20059;-78
2022/04/28 05:53:05;;;;;;;24.42;12.77;;;;;;;3.52;100.00;101462.41;5041079;28;20025;-78
2022/04/28 05:55:30;;;;;;;23.30;12.35;;;;;;;3.51;100.00;101466.81;5058048;28;20071;-76
2022/04/28 05:57:59;;;;;;;29.48;13.20;;;;;;;3.65;100.00;101466.19;5056991;28;20021;-76
2022/04/28 06:00:26;;;;;;;26.55;13.82;;;;;;;3.65;100.00;101472.34;5058933;28;20028;-78
2022/04/28 06:02:52;;;;;;;24.98;13.25;;;;;;;3.68;100.00;101477.69;5059157;28;20502;-78
2022/04/28 06:05:17;;;;;;;27.63;13.05;;;;;;;3.79;100.00;101476.97;5059613;28;20029;-78
2022/04/28 06:07:43;;;;;;;25.20;12.05;;;;;;;3.86;100.00;101492.09;5060897;28;20500;-78
2022/04/28 06:10:08;;;;;;;24.55;11.80;;;;;;;3.86;100.00;101476.25;5061011;28;20035;-78
2022/04/28 06:12:34;;;;;;;26.63;12.45;;;;;;;3.94;100.00;101483.41;5057550;28;20436;-77
2022/04/28 06:14:59;;;;;;;27.65;12.40;;;;;;;4.04;100.00;101481.81;5058319;28;20032;-77
2022/04/28 06:17:24;;;;;;;22.40;11.65;;;;;;;4.15;100.00;101474.06;5057356;28;20082;-77
2022/04/28 06:19:49;;;;;;;24.02;12.07;;;;;;;4.21;100.00;101480.31;5056806;28;20035;-77
2022/04/28 06:22:15;;;;;;;27.35;11.73;;;;;;;4.19;100.00;101483.81;5057380;28;20343;-77
2022/04/28 06:24:40;;;;;;;24.55;11.73;;;;;;;4.27;100.00;101487.47;5056843;28;20084;-77
2022/04/28 06:27:05;;;;;;;26.80;12.60;;;;;;;4.35;100.00;101485.84;5057509;28;20106;-77
2022/04/28 06:29:31;;;;;;;23.42;12.23;;;;;;;4.51;100.00;101490.47;5057467;28;20029;-77
2022/04/28 06:31:56;;;;;;;27.20;12.63;;;;;;;4.57;100.00;101493.19;5057015;28;20032;-77
2022/04/28 06:34:22;;;;;;;26.45;13.00;;;;;;;4.68;100.00;101498.63;5056772;28;20187;-77
2022/04/28 06:36:47;;;;;;;25.08;10.45;;;;;;;4.61;100.00;101495.03;5056860;28;20029;-77
2022/04/28 06:39:15;;;;;;;24.23;11.10;;;;;;;4.83;100.00;101497.06;5038949;28;20025;-77
2022/04/28 06:41:41;;;;;;;23.05;10.30;;;;;;;4.91;100.00;101508.63;5072509;22;20371;-77
2022/04/28 06:44:06;;;;;;;23.27;11.02;;;;;;;4.99;100.00;101509.63;5065773;22;20060;-76
2022/04/28 06:46:31;;;;;;;21.60;10.45;;;;;;;5.03;100.00;101506.16;5037732;28;20033;-77
2022/04/28 06:48:57;;;;;;;23.63;10.75;;;;;;;5.12;100.00;101507.13;5055699;28;20035;-76
2022/04/28 06:51:23;;;;;;;22.98;11.20;;;;;;;5.14;100.00;101508.03;5040511;28;20115;-76
2022/04/28 06:53:48;;;;;;;29.27;11.15;;;;;;;5.24;100.00;101504.63;5054474;28;20021;-76
2022/04/28 06:56:14;;;;;;;25.98;10.93;;;;;;;5.28;100.00;101510.88;5055406;28;20162;-76
2022/04/28 06:58:39;;;;;;;22.10;10.90;;;;;;;5.31;100.00;101510.88;5055353;28;20495;-76
2022/04/28 07:01:05;;;;;;;19.00;10.63;;;;;;;5.39;100.00;101508.31;5037524;28;20021;-76
2022/04/28 07:03:31;;;;;;;20.73;10.15;;;;;;;5.53;100.00;101510.25;5055513;28;20021;-76
2022/04/28 07:05:56;;;;;;;18.77;10.75;;;;;;;5.57;100.00;101509.41;5055067;28;20123;-76
2022/04/28 07:08:21;;;;;;;24.13;12.23;;;;;;;5.74;100.00;101509.59;5037135;28;20025;-76
2022/04/28 07:10:47;;;;;;;21.70;10.80;;;;;;;5.71;100.00;101506.91;5055307;28;20024;-76
2022/04/28 07:13:12;;;;;;;21.23;10.88;;;;;;;5.77;100.00;101506.09;5054977;28;20478;-76
2022/04/28 07:15:38;;;;;;;25.23;11.40;;;;;;;5.85;100.00;101520.28;5054863;28;20033;-76
2022/04/28 07:18:05;;;;;;;22.67;11.90;;;;;;;6.00;100.00;101521.31;5054954;28;20371;-76
2022/04/28 07:20:34;;;;;;;25.58;12.52;;;;;;;6.05;100.00;101522.25;5037193;28;20017;-76
2022/04/28 07:23:00;;;;;;;24.00;11.70;;;;;;;6.06;100.00;101526.66;5054961;28;20025;-76
2022/04/28 07:25:30;;;;;;;22.88;11.45;;;;;;;6.15;100.00;101520.59;5054752;28;20497;-76
2022/04/28 07:27:56;;;;;;;19.63;10.45;;;;;;;6.21;100.00;101525.06;5037334;28;20070;-75
2022/04/28 07:30:22;;;;;;;21.85;10.55;;;;;;;6.31;100.00;101531.31;5037119;28;20029;-76
2022/04/28 07:32:48;;;;;;;24.98;10.55;;;;;;;6.47;100.00;101524.34;5054574;28;20024;-76
2022/04/28 07:35:14;;;;;;;22.92;10.68;;;;;;;6.49;100.00;101527.94;5054556;28;20044;-76
2022/04/28 07:37:40;;;;;;;20.60;10.77;;;;;;;6.45;100.00;101528.75;5054582;28;20029;-76
2022/04/28 07:40:05;;;;;;;24.48;10.93;;;;;;;6.57;100.00;101533.28;5054496;28;20535;-76
2022/04/28 07:42:33;;;;;;;22.27;10.65;;;;;;;6.74;100.00;101528.09;5054536;28;20111;-76
2022/04/28 07:44:58;;;;;;;20.17;10.75;;;;;;;6.75;100.00;101542.25;5054707;28;20021;-76
2022/04/28 07:47:23;;;;;;;18.33;9.30;;;;;;;6.57;100.00;101539.47;5054232;28;20024;-76
2022/04/28 07:49:49;;;;;;;22.52;9.90;;;;;;;6.68;100.00;101542.19;5054479;28;20020;-76
2022/04/28 07:52:14;;;;;;;19.42;10.43;;;;;;;6.89;100.00;101551.19;5054880;28;20109;-76
2022/04/28 07:54:39;;;;;;;22.52;10.82;;;;;;;7.00;100.00;101548.59;5054261;28;20017;-76
2022/04/28 07:57:05;;;;;;;20.45;10.32;;;;;;;6.96;100.00;101546.78;5036312;28;20033;-76
2022/04/28 07:59:30;;;;;;;17.52;10.10;;;;;;;7.18;100.00;101554.88;5054313;28;20512;-76
2022/04/28 08:01:55;;;;;;;19.90;10.30;;;;;;;7.29;100.00;101554.03;5036470;28;20501;-76
2022/04/28 08:04:21;;;;;;;20.23;10.70;;;;;;;7.42;100.00;101550.50;5054693;28;20033;-76
2022/04/28 08:06:46;;;;;;;20.63;11.07;;;;;;;7.55;100.00;101553.25;5054391;28;20469;-75
2022/04/28 08:09:11;;;;;;;20.35;11.07;;;;;;;7.66;100.00;101558.56;5054222;28;20021;-76
2022/04/28 08:11:39;;;;;;;17.20;9.90;;;;;;;7.63;98.84;101564.75;5054151;28;20032;-76
2022/04/28 08:14:04;;;;;;;21.30;9.98;;;;;;;7.52;97.86;101551.47;5053982;28;20092;-76
2022/04/28 08:16:30;;;;;;;22.92;10.02;;;;;;;7.78;99.56;101565.69;5053708;28;20077;-77
2022/04/28 08:18:55;;;;;;;15.90;8.50;;;;;;;7.85;97.68;101559.50;5053771;28;20025;-76
2022/04/28 08:21:21;;;;;;;14.55;8.18;;;;;;;8.12;100.00;101562.19;5035811;28;20444;-76
2022/04/28 08:23:47;;;;;;;15.55;8.15;;;;;;;8.02;92.70;101572.81;5035837;28;20021;-76
2022/04/28 08:26:12;;;;;;;15.48;8.23;;;;;;;8.26;97.46;101563.09;5053589;28;20032;-76
2022/04/28 08:28:37;;;;;;;21.95;8.52;;;;;;;8.23;94.08;101573.72;5054192;28;20033;-76
2022/04/28 08:31:03;;;;;;;14.05;8.27;;;;;;;8.30;92.30;101563.97;5053582;28;20024;-76
2022/04/28 08:33:28;;;;;;;19.02;8.57;;;;;;;8.43;92.25;101561.31;5053461;28;20052;-76
2022/04/28 08:35:53;;;;;;;17.80;9.40;;;;;;;8.43;94.67;101566.63;5035708;28;20028;-76
2022/04/28 08:38:19;;;;;;;17.90;8.90;;;;;;;8.62;93.43;101571.97;5053940;28;20024;-76
2022/04/28 08:40:48;;;;;;;15.68;8.27;;;;;;;8.49;88.37;101582.59;5053761;28;20021;-76
2022/04/28 08:43:15;;;;;;;14.02;8.32;;;;;;;8.86;94.55;101580.81;5053652;28;20025;-75
2022/04/28 08:48:41;;;;;;;20.67;8.80;;;;;;;8.95;93.96;101575.47;5025118;28;20039;-76
2022/04/28 08:51:09;;;;;;;22.30;9.23;;;;;;;9.09;91.27;101577.22;5053436;28;20028;-76
2022/04/28 08:53:34;;;;;;;19.38;8.55;;;;;;;9.23;93.05;101572.72;5035372;28;20020;-76
2022/04/28 08:55:59;;;;;;;20.80;9.05;;;;;;;9.20;89.17;101575.38;5053649;28;20040;-76
2022/04/28 08:58:24;;;;;;;20.13;8.55;;;;;;;9.31;88.88;101578.03;5035180;28;20452;-76
2022/04/28 09:00:51;;;;;;;15.50;8.38;;;;;;;9.16;89.41;101581.63;5035304;28;20021;-76
2022/04/28 09:03:16;;;;;;;15.48;8.80;;;;;;;9.39;94.12;101570.00;5053156;28;20029;-76
2022/04/28 09:05:41;;;;;;;17.85;8.75;;;;;;;9.62;93.53;101577.00;5053255;28;20135;-76
2022/04/28 09:08:06;;;;;;;19.38;8.80;;;;;;;9.76;92.96;101578.72;5053219;28;20363;-76
2022/04/28 09:10:33;;;;;;;15.20;7.78;;;;;;;9.94;88.36;101577.72;5052955;28;20031;-76
2022/04/28 09:14:09;;;;;;;16.20;8.57;;;;;;;10.20;90.46;101567.75;5052805;28;20028;-76
2022/04/28 09:15:48;;;;;;;23.88;8.93;;;;;;;10.32;84.23;101578.31;5052754;28;20540;-76
2022/04/28 09:18:14;;;;;;;13.63;8.43;;;;;;;10.42;87.88;101583.56;5052503;28;20025;-76
2022/04/28 09:20:42;;;;;;;17.00;9.35;;;;;;;10.22;84.01;101584.63;5053367;28;20021;-75
2022/04/28 09:23:08;;;;;;;16.88;9.18;;;;;;;10.33;84.84;101580.09;5052972;28;20401;-76
2022/04/28 09:25:33;;;;;;;17.75;8.88;;;;;;;10.48;82.08;101575.53;5034939;28;20028;-76
2022/04/28 09:28:03;;;;;;;14.55;8.30;;;;;;;10.38;84.45;101572.94;5053047;28;20024;-76
2022/04/28 09:30:51;;;;;;;14.05;8.02;;;;;;;10.82;80.75;101569.00;5053022;28;20386;-76
2022/04/28 09:33:22;;;;;;;12.98;8.13;;;;;;;10.77;79.65;101579.72;5034702;28;20032;-76
2022/04/28 09:35:50;;;;;;;16.10;8.18;;;;;;;11.04;79.95;101571.44;5034801;28;20025;-76
2022/04/28 09:38:16;;;;;;;15.48;8.75;;;;;;;11.00;74.27;101577.72;5053067;28;20032;-76
2022/04/28 09:43:32;;;;;;;16.30;8.52;;;;;;;11.15;78.88;101573.97;5052858;28;20075;-76
2022/04/28 09:45:58;;;;;;;17.27;8.55;;;;;;;11.05;77.90;101582.13;5034703;28;20444;-76
2022/04/28 09:48:28;;;;;;;15.45;7.40;;;;;;;11.37;77.89;101584.41;5052768;28;20017;-76
2022/04/28 09:50:59;;;;;;;14.60;8.05;;;;;;;11.03;74.61;101581.22;5052627;28;20044;-76
2022/04/28 09:53:26;;;;;;;14.98;8.32;;;;;;;11.44;75.31;101585.22;5052917;28;20021;-76
2022/04/28 09:55:53;;;;;;;15.25;8.10;;;;;;;11.83;73.64;101573.97;5052669;28;20442;-77
2022/04/28 09:58:20;;;;;;;13.75;7.90;;;;;;;12.61;74.70;101586.16;5052860;28;20025;-76
2022/04/28 10:00:46;;;;;;;13.18;7.47;;;;;;;12.60;69.03;101579.03;5052854;28;20036;-76
2022/04/28 10:03:12;;;;;;;13.88;8.20;;;;;;;12.31;71.73;101575.09;5052440;28;20030;-76
2022/04/28 10:05:38;;;;;;;15.32;8.30;;;;;;;12.39;76.12;101570.50;5052350;28;20031;-76
2022/04/28 10:08:05;;;;;;;19.20;8.73;;;;;;;12.82;74.52;101573.28;5034451;28;20406;-76
2022/04/28 10:10:31;;;;;;;15.60;7.90;;;;;;;12.65;72.86;101575.41;5034290;28;20025;-76
2022/04/28 10:12:59;;;;;;;15.07;8.10;;;;;;;12.29;73.20;101560.84;5034369;28;20028;-77
2022/04/28 10:15:28;;;;;;;15.48;9.10;;;;;;;12.92;71.82;101560.59;5051999;28;20024;-76
2022/04/28 10:17:58;;;;;;;18.42;8.70;;;;;;;12.05;70.52;101553.16;5052062;28;20409;-76
2022/04/28 10:20:33;;;;;;;16.33;8.93;;;;;;;12.59;71.92;101561.22;5034337;28;20024;-77
2022/04/28 10:23:01;;;;;;;17.90;8.85;;;;;;;12.95;73.96;101554.28;5052573;28;20095;-76
2022/04/28 10:34:16;;;;;;;14.02;8.55;;;;;;;12.84;68.68;101563.41;5055811;28;20028;-76
2022/04/28 10:36:58;;;;;;;13.30;7.75;;;;;;;12.90;66.92;101564.22;5055588;28;20057;-76
2022/04/28 10:39:35;;;;;;;14.35;7.68;;;;;;;13.25;69.57;101565.31;5037594;28;20016;-76
2022/04/28 10:42:11;;;;;;;17.90;7.80;;;;;;;13.89;62.97;101559.50;5055446;28;20043;-76
2022/04/28 10:44:40;;;;;;;13.80;8.38;;;;;;;14.12;67.97;101566.13;5037428;28;20116;-75
2022/04/28 10:47:07;;;;;;;18.25;9.23;;;;;;;13.48;66.06;101557.66;5055439;28;20441;-76
2022/04/28 10:49:39;;;;;;;17.10;7.63;;;;;;;14.02;67.87;101563.63;5055148;28;20370;-76
2022/04/28 10:52:05;;;;;;;14.35;8.63;;;;;;;14.11;69.37;101557.19;5055164;28;20024;-76
2022/04/28 10:54:43;;;;;;;13.68;8.77;;;;;;;13.56;68.78;101558.38;5055331;28;20021;-76
2022/04/28 10:57:12;;;;;;;16.20;8.63;;;;;;;12.67;71.04;101552.13;5037264;28;20025;-76
2022/04/28 10:59:40;;;;;;;12.95;8.02;;;;;;;13.54;66.65;101559.34;5055363;28;20017;-76
2022/04/28 11:02:09;;;;;;;17.20;8.65;;;;;;;12.77;68.27;101561.78;5055141;28;20032;-76
2022/04/28 11:04:35;;;;;;;19.30;8.93;;;;;;;12.90;69.68;101569.59;5055126;28;20099;-76
2022/04/28 11:07:06;;;;;;;15.10;7.88;;;;;;;13.11;66.86;101565.59;5037092;28;20053;-77
2022/04/28 11:09:33;;;;;;;13.18;8.35;;;;;;;13.90;65.29;101564.81;5054972;28;20021;-76
2022/04/28 11:12:11;;;;;;;15.50;9.13;;;;;;;13.64;67.08;101563.63;5055182;28;20089;-76
2022/04/28 11:14:52;;;;;;;13.98;8.00;;;;;;;13.48;64.60;101560.34;5055178;28;20028;-76
2022/04/28 11:17:21;;;;;;;17.90;8.18;;;;;;;13.25;64.78;101565.31;5054777;28;20071;-76
2022/04/28 11:19:46;;;;;;;14.95;8.23;;;;;;;13.18;64.57;101559.19;5055086;28;20448;-75
2022/04/28 11:22:12;;;;;;;17.40;8.45;;;;;;;13.28;67.80;101559.88;5054928;28;20525;-76
2022/04/28 11:24:45;;;;;;;15.90;7.68;;;;;;;13.38;66.59;101562.34;5054630;28;20032;-76
2022/04/28 11:27:21;;;;;;;15.68;8.10;;;;;;;13.61;63.36;101558.31;5036689;28;20025;-76
2022/04/28 11:29:48;;;;;;;13.70;8.20;;;;;;;13.62;64.64;101554.72;5036430;28;20497;-76
2022/04/28 11:32:16;;;;;;;15.38;8.35;;;;;;;13.60;61.54;101545.84;5054377;28;20028;-76
2022/04/28 11:34:43;;;;;;;13.65;8.05;;;;;;;13.96;65.87;101537.84;5036397;28;20124;-76
2022/04/28 11:37:26;;;;;;;14.20;7.40;;;;;;;14.69;60.85;101549.47;5054320;28;20429;-76
2022/04/28 11:39:54;;;;;;;13.75;8.32;;;;;;;14.12;63.09;101540.13;5054143;28;20382;-76